Atlantic - Newfoundland: Past 24 Hour Conditions

 

Marticot Island

02:00 PM ADT 20 October 2014
This table is a summary of hourly weather conditions for the past 24 hours.
Date / Time
(ADT)
Wind(knots) Conditions Visibility(km) Pressure(kPa) Air tempC) Relative humidity(%) Dew pointC)
20 October 2014
14:00 SW 22 gust 33 N/A N/A 99.8 13 83 10
13:00 SSW 27 gust 32 N/A N/A 99.8 13 90 11
12:00 SSW 15 gust 23 N/A N/A 99.8 13 90 12
11:00 SW 26 gust 38 N/A N/A 99.7 14 92 13
10:00 S 22 gust 30 N/A N/A 99.6 14 97 14
9:00 S 22 gust 31 N/A N/A 99.7 14 97 13
8:00 SSE 25 N/A N/A 99.8 14 97 13
7:00 SSE 22 gust 27 N/A N/A 99.9 13 97 13
6:00 SSE 21 gust 26 N/A N/A 100.1 14 97 13
5:00 SSE 22 gust 27 N/A N/A 100.2 14 97 13
4:00 SSE 20 gust 26 N/A N/A 100.3 13 96 13
3:00 SSE 15 gust 20 N/A N/A 100.4 13 96 13
2:00 SE 17 gust 22 N/A N/A 100.5 13 96 12
1:00 N/A N/A N/A N/A N/A N/A N/A
0:00 E 7 N/A N/A 100.8 12 96 12
19 October 2014
23:00 ENE 6 N/A N/A 100.9 12 96 11
22:00 ESE 5 N/A N/A 100.9 12 95 11
21:00 SE 5 N/A N/A 101.0 12 95 11
20:00 SSW 7 N/A N/A 101.0 12 94 11
19:00 SW 6 N/A N/A 101.0 13 94 12
18:00 SW 8 N/A N/A 100.9 12 94 11
17:00 SW 6 N/A N/A 100.8 12 92 11
16:00 SW 12 gust 17 N/A N/A 100.7 13 90 12
15:00 WSW 8 gust 19 N/A N/A 100.5 15 85 13
14:00 WSW 7 gust 17 N/A N/A 100.4 15 90 13
 
Map of Atlantic - Newfoundland marine weather areas Southwestern Grand Banks - 44138 Banquereau - 44139 Tail of the Bank - 44140 Nickerson Bank - 44251 Northeast Burgeo Bank - 44255 Blanc-Sablon Airport Cap Whittle Chevery Natashquan Airport Heath Point Miscou Island Grand Étang Ingonish Beach North Mountain St.Paul Island J.A. Douglas McCurdy Sydney Airport Charlottetown Airport East Point North Cape Argentia Bonavista Burgeo Cape Race Corner Brook Daniel's Harbour Englee Ferolle Point La Scie Port aux Basques Rocky Harbour Sagona Island St. Anthony Airport St. John's Int'l Airport St. Lawrence Stephenville Airport Twillingate Winterland Wreckhouse Cartwright Airport Mary's Harbour Grates Cove Pool's Island Marticot Island Long Pond Îles de la Madeleine Airport
Legend: buoyBuoy land stationLand Station